sensor_id;sensor_type;location;lat;lon;timestamp;pressure;altitude;pressure_sealevel;temperature;humidity
3968;BME280;9221;42.646;23.380;2023-02-15T00:01:49;95688.66;;;3.51;77.27
3968;BME280;9221;42.646;23.380;2023-02-15T00:04:17;95684.53;;;3.47;77.26
3968;BME280;9221;42.646;23.380;2023-02-15T00:06:42;95597.44;;;2.83;77.60
3968;BME280;9221;42.646;23.380;2023-02-15T00:09:09;95644.31;;;3.18;77.59
3968;BME280;9221;42.646;23.380;2023-02-15T00:11:35;95728.59;;;3.52;77.49
3968;BME280;9221;42.646;23.380;2023-02-15T00:14:22;95704.69;;;3.44;77.58
3968;BME280;9221;42.646;23.380;2023-02-15T00:16:50;95634.69;;;3.02;77.76
3968;BME280;9221;42.646;23.380;2023-02-15T00:19:17;95653.66;;;3.04;77.61
3968;BME280;9221;42.646;23.380;2023-02-15T00:21:43;95709.72;;;3.47;77.90
3968;BME280;9221;42.646;23.380;2023-02-15T00:24:11;95680.50;;;3.24;78.35
3968;BME280;9221;42.646;23.380;2023-02-15T00:26:40;95718.03;;;3.37;78.57
3968;BME280;9221;42.646;23.380;2023-02-15T00:29:06;95638.34;;;2.98;78.58
3968;BME280;9221;42.646;23.380;2023-02-15T00:31:32;95680.31;;;3.27;78.56
3968;BME280;9221;42.646;23.380;2023-02-15T00:34:17;95700.72;;;3.36;78.39
3968;BME280;9221;42.646;23.380;2023-02-15T00:36:43;95699.19;;;3.32;78.64
3968;BME280;9221;42.646;23.380;2023-02-15T00:39:09;95709.28;;;3.38;78.92
3968;BME280;9221;42.646;23.380;2023-02-15T00:41:34;95597.56;;;2.64;78.61
3968;BME280;9221;42.646;23.380;2023-02-15T00:44:00;95705.41;;;3.30;78.74
3968;BME280;9221;42.646;23.380;2023-02-15T00:46:25;95655.69;;;2.99;78.60
3968;BME280;9221;42.646;23.380;2023-02-15T00:48:51;95746.66;;;3.39;78.63
3968;BME280;9221;42.646;23.380;2023-02-15T00:51:16;95726.47;;;3.43;78.48
3968;BME280;9221;42.646;23.380;2023-02-15T00:53:45;95646.16;;;2.98;78.58
3968;BME280;9221;42.646;23.380;2023-02-15T00:56:11;95694.09;;;3.29;78.68
3968;BME280;9221;42.646;23.380;2023-02-15T00:58:36;95554.03;;;2.31;78.58
3968;BME280;9221;42.646;23.380;2023-02-15T01:01:10;95716.94;;;3.42;78.49
3968;BME280;9221;42.646;23.380;2023-02-15T01:03:37;95708.28;;;3.41;78.80
3968;BME280;9221;42.646;23.380;2023-02-15T01:06:03;95673.41;;;3.26;78.30
3968;BME280;9221;42.646;23.380;2023-02-15T01:08:29;95695.34;;;3.39;78.33
3968;BME280;9221;42.646;23.380;2023-02-15T01:10:56;95734.28;;;3.43;78.01
3968;BME280;9221;42.646;23.380;2023-02-15T01:13:21;95703.91;;;3.42;78.12
3968;BME280;9221;42.646;23.380;2023-02-15T01:15:53;95668.59;;;3.18;78.45
3968;BME280;9221;42.646;23.380;2023-02-15T01:18:19;95685.22;;;3.33;78.62
3968;BME280;9221;42.646;23.380;2023-02-15T01:20:45;95699.63;;;3.41;78.67
3968;BME280;9221;42.646;23.380;2023-02-15T01:23:10;95651.06;;;3.04;78.58
3968;BME280;9221;42.646;23.380;2023-02-15T01:25:36;95705.31;;;3.31;78.94
3968;BME280;9221;42.646;23.380;2023-02-15T01:28:02;95682.03;;;3.28;78.65
3968;BME280;9221;42.646;23.380;2023-02-15T01:30:28;95679.53;;;3.25;78.79
3968;BME280;9221;42.646;23.380;2023-02-15T01:32:53;95635.88;;;2.95;79.64
3968;BME280;9221;42.646;23.380;2023-02-15T01:35:19;95722.19;;;3.24;79.25
3968;BME280;9221;42.646;23.380;2023-02-15T01:37:44;95687.22;;;3.28;79.31
3968;BME280;9221;42.646;23.380;2023-02-15T01:40:15;95680.50;;;3.24;79.46
3968;BME280;9221;42.646;23.380;2023-02-15T01:42:41;95657.66;;;3.12;79.53
3968;BME280;9221;42.646;23.380;2023-02-15T01:45:26;95683.22;;;3.21;79.78
3968;BME280;9221;42.646;23.380;2023-02-15T01:50:37;95749.00;;;3.26;79.63
3968;BME280;9221;42.646;23.380;2023-02-15T01:56:01;95647.38;;;2.91;79.78
3968;BME280;9221;42.646;23.380;2023-02-15T01:58:27;95676.81;;;3.28;79.67
3968;BME280;9221;42.646;23.380;2023-02-15T02:00:57;95601.97;;;2.79;79.80
3968;BME280;9221;42.646;23.380;2023-02-15T02:03:38;95670.06;;;3.24;79.81
3968;BME280;9221;42.646;23.380;2023-02-15T02:06:07;95673.75;;;3.20;80.06
3968;BME280;9221;42.646;23.380;2023-02-15T02:08:33;95616.06;;;2.75;80.15
3968;BME280;9221;42.646;23.380;2023-02-15T02:10:58;95627.56;;;2.71;80.27
3968;BME280;9221;42.646;23.380;2023-02-15T02:13:24;95676.38;;;3.02;80.61
3968;BME280;9221;42.646;23.380;2023-02-15T02:16:00;95675.91;;;3.12;80.60
3968;BME280;9221;42.646;23.380;2023-02-15T02:18:41;95680.16;;;3.13;80.57
3968;BME280;9221;42.646;23.380;2023-02-15T02:21:16;95696.75;;;3.12;80.67
3968;BME280;9221;42.646;23.380;2023-02-15T02:23:51;95626.50;;;2.75;80.81
3968;BME280;9221;42.646;23.380;2023-02-15T02:34:50;95692.66;;;3.24;80.72
3968;BME280;9221;42.646;23.380;2023-02-15T02:38:08;95734.44;;;3.22;80.43
3968;BME280;9221;42.646;23.380;2023-02-15T02:42:58;95678.09;;;3.19;80.50
3968;BME280;9221;42.646;23.380;2023-02-15T02:45:29;95683.00;;;3.26;80.50
3968;BME280;9221;42.646;23.380;2023-02-15T02:48:05;95676.41;;;3.18;80.73
3968;BME280;9221;42.646;23.380;2023-02-15T02:50:33;95617.28;;;2.85;80.69
3968;BME280;9221;42.646;23.380;2023-02-15T02:52:59;95634.84;;;2.99;80.60
3968;BME280;9221;42.646;23.380;2023-02-15T02:55:46;95689.59;;;3.33;80.69
3968;BME280;9221;42.646;23.380;2023-02-15T03:01:09;95736.13;;;3.41;80.17
3968;BME280;9221;42.646;23.380;2023-02-15T03:03:38;95694.81;;;3.33;80.16
3968;BME280;9221;42.646;23.380;2023-02-15T03:06:12;95728.53;;;3.36;80.01
3968;BME280;9221;42.646;23.380;2023-02-15T03:08:46;95703.06;;;3.41;80.26
3968;BME280;9221;42.646;23.380;2023-02-15T03:11:13;95665.78;;;3.05;80.01
3968;BME280;9221;42.646;23.380;2023-02-15T03:13:39;95701.38;;;3.40;80.65
3968;BME280;9221;42.646;23.380;2023-02-15T03:16:06;95704.84;;;3.41;80.13
3968;BME280;9221;42.646;23.380;2023-02-15T03:18:55;95715.38;;;3.39;79.91
3968;BME280;9221;42.646;23.380;2023-02-15T03:22:08;95712.34;;;3.47;80.33
3968;BME280;9221;42.646;23.380;2023-02-15T03:24:32;95714.34;;;3.42;80.22
3968;BME280;9221;42.646;23.380;2023-02-15T03:27:03;95710.50;;;3.49;80.11
3968;BME280;9221;42.646;23.380;2023-02-15T03:29:30;95639.03;;;3.02;80.02
3968;BME280;9221;42.646;23.380;2023-02-15T03:32:00;95694.63;;;3.36;80.01
3968;BME280;9221;42.646;23.380;2023-02-15T03:34:27;95743.97;;;3.41;80.40
3968;BME280;9221;42.646;23.380;2023-02-15T03:37:18;95700.56;;;3.39;80.30
3968;BME280;9221;42.646;23.380;2023-02-15T03:40:00;95738.88;;;3.37;80.39
3968;BME280;9221;42.646;23.380;2023-02-15T03:42:49;95671.72;;;3.25;80.44
3968;BME280;9221;42.646;23.380;2023-02-15T03:45:22;95761.66;;;3.51;80.15
3968;BME280;9221;42.646;23.380;2023-02-15T03:47:50;95651.38;;;3.16;80.13
3968;BME280;9221;42.646;23.380;2023-02-15T03:50:24;95746.69;;;3.55;80.26
3968;BME280;9221;42.646;23.380;2023-02-15T03:53:13;95696.88;;;3.44;79.68
3968;BME280;9221;42.646;23.380;2023-02-15T03:55:39;95695.94;;;3.45;79.78
3968;BME280;9221;42.646;23.380;2023-02-15T03:58:05;95707.41;;;3.58;79.85
3968;BME280;9221;42.646;23.380;2023-02-15T04:00:56;95592.91;;;2.86;79.84
3968;BME280;9221;42.646;23.380;2023-02-15T04:03:45;95652.56;;;3.26;80.01
3968;BME280;9221;42.646;23.380;2023-02-15T04:06:14;95654.44;;;3.24;79.72
3968;BME280;9221;42.646;23.380;2023-02-15T04:08:39;95743.16;;;3.56;79.68
3968;BME280;9221;42.646;23.380;2023-02-15T04:11:24;95683.13;;;3.40;79.74
3968;BME280;9221;42.646;23.380;2023-02-15T04:13:49;95750.06;;;3.57;79.53
3968;BME280;9221;42.646;23.380;2023-02-15T04:16:22;95756.66;;;3.64;79.73
3968;BME280;9221;42.646;23.380;2023-02-15T04:18:47;95730.41;;;3.67;80.08
3968;BME280;9221;42.646;23.380;2023-02-15T04:21:31;95742.69;;;3.65;80.16
3968;BME280;9221;42.646;23.380;2023-02-15T04:24:15;95731.22;;;3.52;80.13
3968;BME280;9221;42.646;23.380;2023-02-15T04:27:00;95749.13;;;3.58;79.55
3968;BME280;9221;42.646;23.380;2023-02-15T04:29:27;95744.41;;;3.66;79.27
3968;BME280;9221;42.646;23.380;2023-02-15T04:31:55;95748.34;;;3.73;79.75
3968;BME280;9221;42.646;23.380;2023-02-15T04:34:21;95691.91;;;3.39;79.45
3968;BME280;9221;42.646;23.380;2023-02-15T04:36:46;95765.09;;;3.69;79.68
3968;BME280;9221;42.646;23.380;2023-02-15T04:39:13;95761.56;;;3.70;79.56
3968;BME280;9221;42.646;23.380;2023-02-15T04:41:38;95759.00;;;3.69;79.58
3968;BME280;9221;42.646;23.380;2023-02-15T04:44:04;95758.00;;;3.71;79.83
3968;BME280;9221;42.646;23.380;2023-02-15T04:46:29;95695.50;;;3.36;80.02
3968;BME280;9221;42.646;23.380;2023-02-15T04:48:55;95748.53;;;3.70;80.01
3968;BME280;9221;42.646;23.380;2023-02-15T04:51:20;95766.28;;;3.80;79.92
3968;BME280;9221;42.646;23.380;2023-02-15T04:53:46;95745.75;;;3.73;80.07
3968;BME280;9221;42.646;23.380;2023-02-15T04:56:11;95757.81;;;3.76;80.04
3968;BME280;9221;42.646;23.380;2023-02-15T04:58:37;95802.22;;;3.75;80.31
3968;BME280;9221;42.646;23.380;2023-02-15T05:01:06;95768.78;;;3.65;80.75
3968;BME280;9221;42.646;23.380;2023-02-15T05:03:32;95766.63;;;3.73;80.71
3968;BME280;9221;42.646;23.380;2023-02-15T05:05:57;95697.34;;;3.34;80.35
3968;BME280;9221;42.646;23.380;2023-02-15T05:08:23;95751.28;;;3.67;80.14
3968;BME280;9221;42.646;23.380;2023-02-15T05:10:48;95753.81;;;3.69;80.02
3968;BME280;9221;42.646;23.380;2023-02-15T05:13:15;95704.78;;;3.42;80.12
3968;BME280;9221;42.646;23.380;2023-02-15T05:15:40;95794.53;;;3.71;80.14
3968;BME280;9221;42.646;23.380;2023-02-15T05:18:06;95779.78;;;3.88;80.14
3968;BME280;9221;42.646;23.380;2023-02-15T05:20:33;95819.69;;;3.90;79.62
3968;BME280;9221;42.646;23.380;2023-02-15T05:22:58;95787.50;;;3.73;79.79
3968;BME280;9221;42.646;23.380;2023-02-15T05:25:23;95773.66;;;3.89;80.14
3968;BME280;9221;42.646;23.380;2023-02-15T05:28:10;95784.25;;;3.86;79.96
3968;BME280;9221;42.646;23.380;2023-02-15T05:30:46;95821.53;;;3.88;80.00
3968;BME280;9221;42.646;23.380;2023-02-15T05:33:11;95799.13;;;3.84;80.17
3968;BME280;9221;42.646;23.380;2023-02-15T05:35:37;95811.13;;;3.70;80.05
3968;BME280;9221;42.646;23.380;2023-02-15T05:38:02;95784.34;;;3.84;79.83
3968;BME280;9221;42.646;23.380;2023-02-15T05:40:28;95785.34;;;3.82;80.02
3968;BME280;9221;42.646;23.380;2023-02-15T05:42:53;95731.50;;;3.46;79.86
3968;BME280;9221;42.646;23.380;2023-02-15T05:45:18;95734.56;;;3.54;80.01
3968;BME280;9221;42.646;23.380;2023-02-15T05:47:44;95735.72;;;3.48;79.51
3968;BME280;9221;42.646;23.380;2023-02-15T05:50:10;95734.56;;;3.54;79.78
3968;BME280;9221;42.646;23.380;2023-02-15T05:52:36;95741.84;;;3.65;79.32
3968;BME280;9221;42.646;23.380;2023-02-15T05:55:02;95830.81;;;3.94;79.23
3968;BME280;9221;42.646;23.380;2023-02-15T05:57:28;95793.28;;;3.96;79.28
3968;BME280;9221;42.646;23.380;2023-02-15T05:59:54;95839.84;;;3.70;79.42
3968;BME280;9221;42.646;23.380;2023-02-15T06:02:19;95794.66;;;4.03;78.76
3968;BME280;9221;42.646;23.380;2023-02-15T06:04:44;95798.72;;;4.09;78.74
3968;BME280;9221;42.646;23.380;2023-02-15T06:07:10;95800.78;;;4.02;78.63
3968;BME280;9221;42.646;23.380;2023-02-15T06:09:35;95804.75;;;4.10;78.46
3968;BME280;9221;42.646;23.380;2023-02-15T06:12:00;95757.50;;;3.65;78.13
3968;BME280;9221;42.646;23.380;2023-02-15T06:14:26;95799.09;;;4.01;78.52
3968;BME280;9221;42.646;23.380;2023-02-15T06:16:51;95804.59;;;4.13;78.97
3968;BME280;9221;42.646;23.380;2023-02-15T06:19:17;95803.06;;;4.09;78.18
3968;BME280;9221;42.646;23.380;2023-02-15T06:21:42;95812.41;;;4.13;77.97
3968;BME280;9221;42.646;23.380;2023-02-15T06:24:11;95787.81;;;4.01;77.84
3968;BME280;9221;42.646;23.380;2023-02-15T06:26:36;95731.63;;;3.78;78.50
3968;BME280;9221;42.646;23.380;2023-02-15T06:29:02;95755.56;;;3.86;77.81
3968;BME280;9221;42.646;23.380;2023-02-15T06:31:28;95770.47;;;4.00;77.95
3968;BME280;9221;42.646;23.380;2023-02-15T06:33:54;95807.03;;;4.33;77.46
3968;BME280;9221;42.646;23.380;2023-02-15T06:36:28;95759.47;;;4.11;77.27
3968;BME280;9221;42.646;23.380;2023-02-15T06:38:54;95847.97;;;4.49;76.51
3968;BME280;9221;42.646;23.380;2023-02-15T06:41:20;95836.25;;;4.56;76.60
3968;BME280;9221;42.646;23.380;2023-02-15T06:43:46;95801.56;;;4.54;76.18
3968;BME280;9221;42.646;23.380;2023-02-15T06:46:11;95845.44;;;4.63;76.33
3968;BME280;9221;42.646;23.380;2023-02-15T06:48:37;95786.63;;;4.40;75.98
3968;BME280;9221;42.646;23.380;2023-02-15T06:51:02;95807.22;;;4.62;75.76
3968;BME280;9221;42.646;23.380;2023-02-15T06:53:28;95783.94;;;4.57;76.31
3968;BME280;9221;42.646;23.380;2023-02-15T06:56:00;95734.75;;;4.50;75.08
3968;BME280;9221;42.646;23.380;2023-02-15T06:58:25;95737.59;;;4.61;74.54
3968;BME280;9221;42.646;23.380;2023-02-15T07:00:51;95696.56;;;4.47;74.75
3968;BME280;9221;42.646;23.380;2023-02-15T07:03:16;95773.28;;;5.08;73.55
3968;BME280;9221;42.646;23.380;2023-02-15T07:05:42;95738.41;;;4.94;72.87
3968;BME280;9221;42.646;23.380;2023-02-15T07:08:08;95808.44;;;5.49;72.68
3968;BME280;9221;42.646;23.380;2023-02-15T07:10:34;95812.88;;;5.63;72.07
3968;BME280;9221;42.646;23.380;2023-02-15T07:12:59;95802.63;;;5.74;71.62
3968;BME280;9221;42.646;23.380;2023-02-15T07:15:25;95854.59;;;5.81;70.85
3968;BME280;9221;42.646;23.380;2023-02-15T07:17:50;95811.69;;;5.83;70.17
3968;BME280;9221;42.646;23.380;2023-02-15T07:20:18;95759.25;;;5.70;69.85
3968;BME280;9221;42.646;23.380;2023-02-15T07:22:45;95831.88;;;6.12;69.49
3968;BME280;9221;42.646;23.380;2023-02-15T07:25:11;95847.03;;;6.21;68.19
3968;BME280;9221;42.646;23.380;2023-02-15T07:27:37;95815.13;;;6.29;67.88
3968;BME280;9221;42.646;23.380;2023-02-15T07:30:04;95759.47;;;6.10;67.17
3968;BME280;9221;42.646;23.380;2023-02-15T07:32:30;95742.44;;;6.32;66.76
3968;BME280;9221;42.646;23.380;2023-02-15T07:34:57;95819.13;;;6.77;nan
3968;BME280;9221;42.646;23.380;2023-02-15T07:37:22;95801.75;;;6.19;65.44
3968;BME280;9221;42.646;23.380;2023-02-15T07:39:49;95834.06;;;6.90;66.24
3968;BME280;9221;42.646;23.380;2023-02-15T07:42:14;95824.50;;;7.03;65.22
3968;BME280;9221;42.646;23.380;2023-02-15T07:44:40;95757.78;;;7.07;64.05
3968;BME280;9221;42.646;23.380;2023-02-15T07:47:05;95789.41;;;7.19;63.50
3968;BME280;9221;42.646;23.380;2023-02-15T07:49:31;95810.81;;;7.13;63.72
3968;BME280;9221;42.646;23.380;2023-02-15T07:51:56;95787.75;;;7.18;63.71
3968;BME280;9221;42.646;23.380;2023-02-15T07:54:21;95779.94;;;7.43;63.56
3968;BME280;9221;42.646;23.380;2023-02-15T07:56:47;95784.63;;;7.78;62.72
3968;BME280;9221;42.646;23.380;2023-02-15T07:59:12;95824.88;;;7.92;61.51
3968;BME280;9221;42.646;23.380;2023-02-15T08:01:38;95797.25;;;7.99;61.26
3968;BME280;9221;42.646;23.380;2023-02-15T08:04:05;95794.63;;;8.25;60.38
3968;BME280;9221;42.646;23.380;2023-02-15T08:06:34;95793.88;;;8.49;59.10
3968;BME280;9221;42.646;23.380;2023-02-15T08:09:02;95795.16;;;8.30;59.35
3968;BME280;9221;42.646;23.380;2023-02-15T08:11:30;95729.59;;;7.64;59.95
3968;BME280;9221;42.646;23.380;2023-02-15T08:14:13;95755.03;;;7.23;61.49
3968;BME280;9221;42.646;23.380;2023-02-15T08:16:43;95792.88;;;7.19;63.54
3968;BME280;9221;42.646;23.380;2023-02-15T08:19:11;95835.50;;;7.23;63.13
3968;BME280;9221;42.646;23.380;2023-02-15T08:21:39;95738.19;;;6.86;63.65
3968;BME280;9221;42.646;23.380;2023-02-15T08:24:07;95732.97;;;6.86;63.20
3968;BME280;9221;42.646;23.380;2023-02-15T08:26:32;95782.66;;;6.87;64.46
3968;BME280;9221;42.646;23.380;2023-02-15T08:28:59;95794.19;;;6.85;64.77
3968;BME280;9221;42.646;23.380;2023-02-15T08:31:24;95752.16;;;7.14;63.29
3968;BME280;9221;42.646;23.380;2023-02-15T08:33:52;95783.69;;;7.39;62.36
3968;BME280;9221;42.646;23.380;2023-02-15T08:36:20;95797.84;;;7.64;62.62
3968;BME280;9221;42.646;23.380;2023-02-15T08:38:46;95788.63;;;8.61;60.74
3968;BME280;9221;42.646;23.380;2023-02-15T08:41:18;95806.59;;;9.53;57.19
3968;BME280;9221;42.646;23.380;2023-02-15T08:43:45;95826.50;;;10.04;54.41
3968;BME280;9221;42.646;23.380;2023-02-15T08:46:11;95804.72;;;10.25;53.47
3968;BME280;9221;42.646;23.380;2023-02-15T08:48:37;95836.69;;;10.44;53.49
3968;BME280;9221;42.646;23.380;2023-02-15T08:51:11;95752.53;;;10.53;51.26
3968;BME280;9221;42.646;23.380;2023-02-15T08:53:38;95825.88;;;10.93;50.92
3968;BME280;9221;42.646;23.380;2023-02-15T08:56:03;95760.91;;;10.35;51.02
3968;BME280;9221;42.646;23.380;2023-02-15T08:58:29;95818.09;;;9.99;51.93
3968;BME280;9221;42.646;23.380;2023-02-15T09:00:56;95806.34;;;9.92;51.69
3968;BME280;9221;42.646;23.380;2023-02-15T09:03:22;95811.22;;;9.49;53.26
3968;BME280;9221;42.646;23.380;2023-02-15T09:05:47;95817.06;;;9.18;54.30
3968;BME280;9221;42.646;23.380;2023-02-15T09:08:12;95820.53;;;8.94;54.93
3968;BME280;9221;42.646;23.380;2023-02-15T09:10:38;95822.34;;;9.18;54.40
3968;BME280;9221;42.646;23.380;2023-02-15T09:13:03;95814.56;;;9.03;54.10
3968;BME280;9221;42.646;23.380;2023-02-15T09:15:29;95765.78;;;8.62;55.13
3968;BME280;9221;42.646;23.380;2023-02-15T09:17:54;95789.50;;;8.73;54.86
3968;BME280;9221;42.646;23.380;2023-02-15T09:20:20;95832.69;;;8.58;55.07
3968;BME280;9221;42.646;23.380;2023-02-15T09:22:45;95848.88;;;8.52;55.61
3968;BME280;9221;42.646;23.380;2023-02-15T09:25:10;95862.94;;;8.25;55.94
3968;BME280;9221;42.646;23.380;2023-02-15T09:27:38;95820.78;;;8.01;56.74
3968;BME280;9221;42.646;23.380;2023-02-15T09:30:05;95795.50;;;7.59;57.88
3968;BME280;9221;42.646;23.380;2023-02-15T09:32:31;95813.22;;;8.09;57.21
3968;BME280;9221;42.646;23.380;2023-02-15T09:34:56;95788.19;;;8.29;56.83
3968;BME280;9221;42.646;23.380;2023-02-15T09:37:21;95826.31;;;9.47;54.36
3968;BME280;9221;42.646;23.380;2023-02-15T09:39:47;95804.72;;;10.13;52.09
3968;BME280;9221;42.646;23.380;2023-02-15T09:56:18;95813.59;;;12.33;45.31
3968;BME280;9221;42.646;23.380;2023-02-15T10:01:38;95810.34;;;12.50;44.68
3968;BME280;9221;42.646;23.380;2023-02-15T10:07:10;95833.63;;;12.57;44.71
3968;BME280;9221;42.646;23.380;2023-02-15T10:09:50;95830.72;;;12.60;44.34
3968;BME280;9221;42.646;23.380;2023-02-15T10:15:27;95793.03;;;13.28;43.24
3968;BME280;9221;42.646;23.380;2023-02-15T10:23:33;95817.78;;;12.97;43.33
3968;BME280;9221;42.646;23.380;2023-02-15T10:26:19;95836.72;;;13.02;42.84
3968;BME280;9221;42.646;23.380;2023-02-15T10:34:20;95778.09;;;13.07;42.96
3968;BME280;9221;42.646;23.380;2023-02-15T10:45:18;95765.53;;;12.59;44.18
3968;BME280;9221;42.646;23.380;2023-02-15T10:48:55;95756.72;;;12.17;44.35
3968;BME280;9221;42.646;23.380;2023-02-15T10:51:00;95756.06;;;12.04;44.63
3968;BME280;9221;42.646;23.380;2023-02-15T11:01:34;95691.06;;;9.48;49.16
3968;BME280;9221;42.646;23.380;2023-02-15T11:07:06;95676.66;;;8.70;52.03
3968;BME280;9221;42.646;23.380;2023-02-15T11:09:40;95748.59;;;8.82;53.01
3968;BME280;9221;42.646;23.380;2023-02-15T11:12:11;95843.63;;;8.52;53.99
3968;BME280;9221;42.646;23.380;2023-02-15T11:14:49;95745.50;;;8.38;54.93
3968;BME280;9221;42.646;23.380;2023-02-15T11:17:30;95706.47;;;8.08;55.26
3968;BME280;9221;42.646;23.380;2023-02-15T11:20:19;95754.13;;;8.40;54.94
3968;BME280;9221;42.646;23.380;2023-02-15T11:22:49;95753.69;;;8.34;55.01
3968;BME280;9221;42.646;23.380;2023-02-15T11:25:19;95742.19;;;7.97;56.63
3968;BME280;9221;42.646;23.380;2023-02-15T11:27:47;95727.91;;;7.89;56.52
3968;BME280;9221;42.646;23.380;2023-02-15T11:30:25;95751.88;;;7.97;57.01
3968;BME280;9221;42.646;23.380;2023-02-15T11:32:56;95704.88;;;7.67;57.14
3968;BME280;9221;42.646;23.380;2023-02-15T11:35:30;95753.03;;;7.93;57.27
3968;BME280;9221;42.646;23.380;2023-02-15T11:38:18;95744.28;;;8.05;57.41
3968;BME280;9221;42.646;23.380;2023-02-15T11:40:49;95744.06;;;7.83;57.03
3968;BME280;9221;42.646;23.380;2023-02-15T11:43:23;95738.72;;;7.71;57.63
3968;BME280;9221;42.646;23.380;2023-02-15T11:45:50;95676.00;;;7.28;58.14
3968;BME280;9221;42.646;23.380;2023-02-15T11:48:15;95600.59;;;6.78;58.22
3968;BME280;9221;42.646;23.380;2023-02-15T11:50:42;95657.72;;;7.14;58.38
3968;BME280;9221;42.646;23.380;2023-02-15T11:53:21;95710.97;;;7.41;59.24
3968;BME280;9221;42.646;23.380;2023-02-15T11:55:49;95710.22;;;7.39;59.00
3968;BME280;9221;42.646;23.380;2023-02-15T11:58:35;95706.88;;;7.37;59.39
3968;BME280;9221;42.646;23.380;2023-02-15T12:01:11;95705.69;;;6.88;59.86
3968;BME280;9221;42.646;23.380;2023-02-15T12:06:33;95691.41;;;7.20;59.97
3968;BME280;9221;42.646;23.380;2023-02-15T12:11:41;95698.69;;;7.29;59.93
3968;BME280;9221;42.646;23.380;2023-02-15T12:14:08;95702.34;;;7.39;59.54
3968;BME280;9221;42.646;23.380;2023-02-15T12:16:50;95742.03;;;7.48;59.75
3968;BME280;9221;42.646;23.380;2023-02-15T12:19:31;95759.47;;;7.36;59.22
3968;BME280;9221;42.646;23.380;2023-02-15T12:21:59;95715.47;;;7.39;59.86
3968;BME280;9221;42.646;23.380;2023-02-15T12:24:28;95677.56;;;7.31;59.70
3968;BME280;9221;42.646;23.380;2023-02-15T12:27:10;95681.56;;;7.23;59.62
3968;BME280;9221;42.646;23.380;2023-02-15T12:29:44;95621.38;;;6.82;60.04
3968;BME280;9221;42.646;23.380;2023-02-15T12:32:17;95686.91;;;7.22;59.72
3968;BME280;9221;42.646;23.380;2023-02-15T12:34:44;95686.81;;;7.36;59.94
3968;BME280;9221;42.646;23.380;2023-02-15T12:37:17;95705.50;;;7.44;60.04
3968;BME280;9221;42.646;23.380;2023-02-15T12:42:17;95595.09;;;7.22;58.92
3968;BME280;9221;42.646;23.380;2023-02-15T12:47:21;95577.03;;;7.04;59.17
3968;BME280;9221;42.646;23.380;2023-02-15T12:50:14;95538.09;;;6.72;60.21
3968;BME280;9221;42.646;23.380;2023-02-15T12:52:48;95659.00;;;7.59;59.90
3968;BME280;9221;42.646;23.380;2023-02-15T12:55:24;95612.19;;;7.27;59.87
3968;BME280;9221;42.646;23.380;2023-02-15T12:58:07;95700.19;;;7.59;59.64
3968;BME280;9221;42.646;23.380;2023-02-15T13:00:33;95634.66;;;7.57;59.45
3968;BME280;9221;42.646;23.380;2023-02-15T13:03:00;95657.56;;;7.68;59.67
3968;BME280;9221;42.646;23.380;2023-02-15T13:05:33;95686.44;;;7.68;59.53
3968;BME280;9221;42.646;23.380;2023-02-15T13:08:13;95584.59;;;7.22;59.50
3968;BME280;9221;42.646;23.380;2023-02-15T13:10:56;95640.22;;;7.66;59.12
3968;BME280;9221;42.646;23.380;2023-02-15T13:13:25;95565.16;;;7.24;59.72
3968;BME280;9221;42.646;23.380;2023-02-15T13:15:54;95593.81;;;7.40;58.58
3968;BME280;9221;42.646;23.380;2023-02-15T13:18:37;95634.66;;;7.70;59.04
3968;BME280;9221;42.646;23.380;2023-02-15T13:21:19;95677.06;;;7.77;58.25
3968;BME280;9221;42.646;23.380;2023-02-15T13:23:52;95626.03;;;7.68;58.49
3968;BME280;9221;42.646;23.380;2023-02-15T13:26:21;95631.78;;;7.73;58.70
3968;BME280;9221;42.646;23.380;2023-02-15T13:28:51;95630.44;;;7.68;58.16
3968;BME280;9221;42.646;23.380;2023-02-15T13:31:22;95583.41;;;7.52;58.43
3968;BME280;9221;42.646;23.380;2023-02-15T13:33:51;95686.31;;;7.95;58.67
3968;BME280;9221;42.646;23.380;2023-02-15T13:44:43;95650.78;;;8.03;58.98
3968;BME280;9221;42.646;23.380;2023-02-15T13:47:26;95680.38;;;8.05;58.71
3968;BME280;9221;42.646;23.380;2023-02-15T13:50:19;95650.78;;;8.03;58.44
3968;BME280;9221;42.646;23.380;2023-02-15T13:53:15;95656.56;;;7.95;59.06
3968;BME280;9221;42.646;23.380;2023-02-15T13:55:54;95690.94;;;7.92;58.92
3968;BME280;9221;42.646;23.380;2023-02-15T14:01:10;95595.38;;;7.56;58.87
3968;BME280;9221;42.646;23.380;2023-02-15T14:11:33;95702.59;;;7.88;59.22
3968;BME280;9221;42.646;23.380;2023-02-15T14:14:32;95676.63;;;7.83;59.76
3968;BME280;9221;42.646;23.380;2023-02-15T14:17:25;95710.97;;;7.80;59.63
3968;BME280;9221;42.646;23.380;2023-02-15T14:19:57;95631.31;;;7.42;60.05
3968;BME280;9221;42.646;23.380;2023-02-15T14:22:41;95719.28;;;7.87;59.94
3968;BME280;9221;42.646;23.380;2023-02-15T14:25:41;95699.97;;;7.88;60.11
3968;BME280;9221;42.646;23.380;2023-02-15T14:28:12;95684.63;;;7.82;60.04
3968;BME280;9221;42.646;23.380;2023-02-15T14:30:44;95696.59;;;7.86;60.47
3968;BME280;9221;42.646;23.380;2023-02-15T14:35:41;95718.03;;;7.79;59.89
3968;BME280;9221;42.646;23.380;2023-02-15T14:40:59;95618.38;;;7.26;60.54
3968;BME280;9221;42.646;23.380;2023-02-15T14:43:51;95691.88;;;7.65;60.70
3968;BME280;9221;42.646;23.380;2023-02-15T14:46:46;95619.44;;;7.24;61.24
3968;BME280;9221;42.646;23.380;2023-02-15T14:49:12;95680.00;;;7.47;61.27
3968;BME280;9221;42.646;23.380;2023-02-15T14:56:43;95672.44;;;7.42;61.54
3968;BME280;9221;42.646;23.380;2023-02-15T14:59:22;95673.91;;;7.33;61.48
3968;BME280;9221;42.646;23.380;2023-02-15T15:02:03;95689.22;;;7.39;61.88
3968;BME280;9221;42.646;23.380;2023-02-15T15:04:33;95726.59;;;7.30;61.83
3968;BME280;9221;42.646;23.380;2023-02-15T15:09:29;95572.84;;;6.49;62.21
3968;BME280;9221;42.646;23.380;2023-02-15T15:14:48;95683.09;;;7.00;62.75
3968;BME280;9221;42.646;23.380;2023-02-15T15:22:29;95684.13;;;6.98;63.20
3968;BME280;9221;42.646;23.380;2023-02-15T15:33:43;95703.97;;;6.74;63.96
3968;BME280;9221;42.646;23.380;2023-02-15T15:41:19;95712.91;;;6.57;64.94
3968;BME280;9221;42.646;23.380;2023-02-15T15:49:31;95750.88;;;6.23;65.75
3968;BME280;9221;42.646;23.380;2023-02-15T15:52:03;95718.16;;;6.16;66.36
3968;BME280;9221;42.646;23.380;2023-02-15T15:54:33;95699.66;;;6.04;66.29
3968;BME280;9221;42.646;23.380;2023-02-15T15:57:02;95752.19;;;6.01;66.33
3968;BME280;9221;42.646;23.380;2023-02-15T15:59:31;95652.88;;;5.55;66.55
3968;BME280;9221;42.646;23.380;2023-02-15T16:02:06;95666.34;;;5.63;66.60
3968;BME280;9221;42.646;23.380;2023-02-15T16:04:33;95713.47;;;5.92;66.98